createdAt,value
2023-05-03T00:03:35.549Z,1010.45
2023-05-03T00:08:35.481Z,1010.47
2023-05-03T00:13:35.409Z,1010.40
2023-05-03T00:18:35.353Z,1010.39
2023-05-03T00:23:35.288Z,1010.40
2023-05-03T00:28:35.223Z,1010.38
2023-05-03T00:33:35.158Z,1010.38
2023-05-03T00:38:35.094Z,1010.29
2023-05-03T00:43:35.031Z,1010.30
2023-05-03T00:48:34.962Z,1010.28
2023-05-03T00:53:34.904Z,1010.21
2023-05-03T00:58:34.831Z,1010.22
2023-05-03T01:03:34.909Z,1010.18
2023-05-03T01:08:34.697Z,1010.18
2023-05-03T01:13:34.631Z,1010.18
2023-05-03T01:18:34.572Z,1010.19
2023-05-03T01:23:34.508Z,1010.17
2023-05-03T01:28:34.436Z,1010.21
2023-05-03T01:33:34.362Z,1010.29
2023-05-03T01:38:34.310Z,1010.25
2023-05-03T01:43:34.232Z,1010.27
2023-05-03T01:48:34.176Z,1010.30
2023-05-03T01:53:34.109Z,1010.29
2023-05-03T01:58:34.044Z,1010.36
2023-05-03T02:03:33.969Z,1010.38
2023-05-03T02:08:33.914Z,1010.39
2023-05-03T02:13:33.842Z,1010.34
2023-05-03T02:18:33.781Z,1010.35
2023-05-03T02:23:33.707Z,1010.40
2023-05-03T02:28:33.803Z,1010.45
2023-05-03T02:33:33.578Z,1010.45
2023-05-03T02:38:33.777Z,1010.55
2023-05-03T02:43:33.443Z,1010.57
2023-05-03T02:48:33.393Z,1010.59
2023-05-03T02:53:33.309Z,1010.54
2023-05-03T02:58:33.267Z,1010.71
2023-05-03T03:03:33.300Z,1010.71
2023-05-03T03:08:33.138Z,1010.71
2023-05-03T03:13:33.057Z,1010.69
2023-05-03T03:18:32.998Z,1010.71
2023-05-03T03:23:32.925Z,1010.66
2023-05-03T03:28:32.865Z,1010.72
2023-05-03T03:33:32.800Z,1010.76
2023-05-03T03:38:32.734Z,1010.83
2023-05-03T03:43:32.661Z,1010.85
2023-05-03T03:48:32.603Z,1010.84
2023-05-03T03:53:32.529Z,1010.87
2023-05-03T03:58:32.477Z,1010.98
2023-05-03T04:03:32.460Z,1010.97
2023-05-03T04:08:32.327Z,1011.02
2023-05-03T04:13:32.270Z,1011.11
2023-05-03T04:18:32.209Z,1011.13
2023-05-03T04:23:32.146Z,1011.26
2023-05-03T04:28:32.067Z,1011.29
2023-05-03T04:33:32.004Z,1011.28
2023-05-03T04:38:31.929Z,1011.39
2023-05-03T04:43:31.869Z,1011.47
2023-05-03T04:48:31.804Z,1011.50
2023-05-03T04:53:31.736Z,1011.47
2023-05-03T04:58:31.690Z,1011.54
2023-05-03T05:03:31.799Z,1011.52
2023-05-03T05:08:31.529Z,1011.63
2023-05-03T05:13:31.465Z,1011.65
2023-05-03T05:18:31.452Z,1011.63
2023-05-03T05:23:31.400Z,1011.59
2023-05-03T05:28:31.266Z,1011.55
2023-05-03T05:33:31.317Z,1011.60
2023-05-03T05:38:31.138Z,1011.68
2023-05-03T05:43:31.076Z,1011.73
2023-05-03T05:48:31.007Z,1011.73
2023-05-03T05:53:30.978Z,1011.76
2023-05-03T05:58:30.872Z,1011.74
2023-05-03T06:03:30.865Z,1011.78
2023-05-03T06:08:30.743Z,1011.80
2023-05-03T06:13:30.684Z,1011.79
2023-05-03T06:18:30.613Z,1011.78
2023-05-03T06:23:30.551Z,1011.74
2023-05-03T06:28:30.484Z,1011.75
2023-05-03T06:33:30.438Z,1011.77
2023-05-03T06:38:30.361Z,1011.75
2023-05-03T06:43:30.310Z,1011.81
2023-05-03T06:48:30.266Z,1011.83
2023-05-03T06:53:30.167Z,1011.88
2023-05-03T06:58:30.089Z,1011.89
2023-05-03T07:03:30.136Z,1011.82
2023-05-03T07:08:29.957Z,1011.83
2023-05-03T07:13:29.889Z,1011.74
2023-05-03T07:18:29.821Z,1011.77
2023-05-03T07:23:29.765Z,1011.74
2023-05-03T07:28:29.698Z,1011.66
2023-05-03T07:33:29.703Z,1011.70
2023-05-03T07:38:29.565Z,1011.62
2023-05-03T07:43:29.511Z,1011.52
2023-05-03T07:48:29.421Z,1011.59
2023-05-03T07:53:29.372Z,1011.53
2023-05-03T07:58:40.073Z,1011.50
2023-05-03T08:03:30.448Z,1011.42
2023-05-03T08:08:29.162Z,1011.43
2023-05-03T08:13:29.130Z,1011.39
2023-05-03T08:18:29.066Z,1011.37
2023-05-03T08:23:29.016Z,1011.39
2023-05-03T08:28:28.918Z,1011.38
2023-05-03T08:33:28.848Z,1011.36
2023-05-03T08:38:28.797Z,1011.33
2023-05-03T08:43:28.816Z,1011.34
2023-05-03T08:48:30.629Z,1011.31
2023-05-03T08:53:28.588Z,1011.30
2023-05-03T08:58:28.530Z,1011.35
2023-05-03T09:03:28.621Z,1011.37
2023-05-03T09:08:28.381Z,1011.34
2023-05-03T09:13:28.323Z,1011.34
2023-05-03T09:18:28.246Z,1011.31
2023-05-03T09:23:28.207Z,1011.36
2023-05-03T09:28:28.177Z,1011.36
2023-05-03T09:33:28.066Z,1011.26
2023-05-03T09:38:28.031Z,1011.25
2023-05-03T09:43:27.930Z,1011.22
2023-05-03T09:48:27.868Z,1011.25
2023-05-03T09:53:27.807Z,1011.19
2023-05-03T09:58:27.741Z,1011.13
2023-05-03T10:03:27.697Z,1011.14
2023-05-03T10:08:27.615Z,1011.08
2023-05-03T10:13:27.544Z,1011.08
2023-05-03T10:18:27.554Z,1011.00
2023-05-03T10:23:27.413Z,1011.07
2023-05-03T10:28:27.351Z,1011.05
2023-05-03T10:33:27.278Z,1011.07
2023-05-03T10:38:27.214Z,1011.07
2023-05-03T10:43:27.146Z,1011.04
2023-05-03T10:48:27.068Z,1011.03
2023-05-03T10:53:27.016Z,1011.03
2023-05-03T10:58:27.052Z,1011.01
2023-05-03T11:03:26.878Z,1011.05
2023-05-03T11:08:26.799Z,1011.05
2023-05-03T11:13:26.827Z,1011.07
2023-05-03T11:18:26.709Z,1011.06
2023-05-03T11:23:26.642Z,1011.00
2023-05-03T11:28:26.576Z,1011.03
2023-05-03T11:33:26.475Z,1010.96
2023-05-03T11:38:26.402Z,1010.88
2023-05-03T11:43:26.354Z,1010.91
2023-05-03T11:48:26.359Z,1010.80
2023-05-03T11:53:26.239Z,1010.87
2023-05-03T11:58:26.161Z,1010.87
2023-05-03T12:03:30.666Z,1010.88
2023-05-03T12:08:26.658Z,1010.94
2023-05-03T12:13:26.346Z,1010.86
2023-05-03T12:18:26.034Z,1010.86
2023-05-03T12:23:26.679Z,1010.73
2023-05-03T12:28:26.038Z,1010.64
2023-05-03T12:33:28.179Z,1010.63
2023-05-03T12:38:25.835Z,1010.62
2023-05-03T12:43:25.639Z,1010.62
2023-05-03T12:48:25.813Z,1010.54
2023-05-03T12:53:26.142Z,1010.57
2023-05-03T12:58:52.943Z,1010.53
2023-05-03T13:03:32.709Z,1010.52
2023-05-03T13:08:33.079Z,1010.39
2023-05-03T13:13:25.196Z,1010.42
2023-05-03T13:18:25.154Z,1010.27
2023-05-03T13:23:25.085Z,1010.23
2023-05-03T13:28:25.007Z,1010.17
2023-05-03T13:33:25.020Z,1010.15
2023-05-03T13:38:24.849Z,1010.17
2023-05-03T13:43:24.791Z,1010.08
2023-05-03T13:48:24.747Z,1010.08
2023-05-03T13:53:24.673Z,1010.00
2023-05-03T13:58:24.595Z,1010.01
2023-05-03T14:03:24.615Z,1009.96
2023-05-03T14:08:24.452Z,1009.95
2023-05-03T14:13:24.495Z,1009.92
2023-05-03T14:18:24.341Z,1009.85
2023-05-03T14:23:24.265Z,1009.84
2023-05-03T14:28:24.183Z,1009.81
2023-05-03T14:33:24.121Z,1009.81
2023-05-03T14:38:24.049Z,1009.82
2023-05-03T14:43:23.995Z,1009.84
2023-05-03T14:48:23.920Z,1009.79
2023-05-03T14:53:23.855Z,1009.87
2023-05-03T14:58:23.795Z,1009.72
2023-05-03T15:03:23.775Z,1009.71
2023-05-03T15:08:23.806Z,1009.65
2023-05-03T15:13:24.004Z,1009.58
2023-05-03T15:18:23.899Z,1009.67
2023-05-03T15:23:23.468Z,1009.59
2023-05-03T15:28:23.490Z,1009.60
2023-05-03T15:33:23.361Z,1009.51
2023-05-03T15:38:23.253Z,1009.51
2023-05-03T15:43:23.200Z,1009.52
2023-05-03T15:48:23.127Z,1009.49
2023-05-03T15:53:23.085Z,1009.49
2023-05-03T15:58:22.997Z,1009.42
2023-05-03T16:03:22.952Z,1009.38
2023-05-03T16:08:22.874Z,1009.33
2023-05-03T16:13:22.832Z,1009.27
2023-05-03T16:18:22.759Z,1009.22
2023-05-03T16:23:22.690Z,1009.14
2023-05-03T16:28:22.619Z,1009.17
2023-05-03T16:33:22.565Z,1009.16
2023-05-03T16:38:22.492Z,1009.18
2023-05-03T16:43:22.431Z,1009.15
2023-05-03T16:48:22.405Z,1009.13
2023-05-03T16:53:22.339Z,1009.08
2023-05-03T16:58:22.230Z,1009.06
2023-05-03T17:03:22.421Z,1009.08
2023-05-03T17:08:22.105Z,1009.01
2023-05-03T17:13:22.045Z,1009.03
2023-05-03T17:18:21.977Z,1008.99
2023-05-03T17:23:21.918Z,1008.94
2023-05-03T17:28:21.853Z,1009.07
2023-05-03T17:33:21.788Z,1008.95
2023-05-03T17:38:21.715Z,1008.98
2023-05-03T17:43:21.660Z,1009.00
2023-05-03T17:48:21.588Z,1009.01
2023-05-03T17:53:21.534Z,1009.01
2023-05-03T17:58:21.466Z,1009.01
2023-05-03T18:03:21.511Z,1009.00
2023-05-03T18:08:21.337Z,1009.00
2023-05-03T18:13:21.356Z,1009.03
2023-05-03T18:18:21.204Z,1009.09
2023-05-03T18:23:21.152Z,1009.11
2023-05-03T18:28:21.077Z,1009.25
2023-05-03T18:33:21.023Z,1009.22
2023-05-03T18:38:20.945Z,1009.19
2023-05-03T18:43:20.890Z,1009.14
2023-05-03T18:48:20.822Z,1009.16
2023-05-03T18:53:20.761Z,1009.11
2023-05-03T18:58:20.683Z,1009.16
2023-05-03T19:03:20.655Z,1009.23
2023-05-03T19:08:20.561Z,1009.15
2023-05-03T19:13:20.544Z,1009.20
2023-05-03T19:18:20.425Z,1009.22
2023-05-03T19:23:20.361Z,1009.22
2023-05-03T19:28:20.289Z,1009.21
2023-05-03T19:33:20.246Z,1009.18
2023-05-03T19:38:20.159Z,1009.16
2023-05-03T19:43:20.103Z,1009.14
2023-05-03T19:48:20.034Z,1009.13
2023-05-03T19:53:19.995Z,1009.16
2023-05-03T19:58:19.896Z,1009.17
2023-05-03T20:03:19.978Z,1009.09
2023-05-03T20:08:19.763Z,1009.12
2023-05-03T20:13:19.750Z,1009.13
2023-05-03T20:18:19.631Z,1009.15
2023-05-03T20:23:19.567Z,1009.12
2023-05-03T20:28:19.552Z,1009.07
2023-05-03T20:33:19.446Z,1009.18
2023-05-03T20:38:19.386Z,1009.14
2023-05-03T20:43:19.308Z,1009.13
2023-05-03T20:48:19.273Z,1009.12
2023-05-03T20:53:19.188Z,1009.05
2023-05-03T20:58:19.130Z,1008.94
2023-05-03T21:03:19.197Z,1008.95
2023-05-03T21:08:18.984Z,1009.02
2023-05-03T21:13:19.039Z,1009.09
2023-05-03T21:18:18.854Z,1009.09
2023-05-03T21:23:18.776Z,1009.10
2023-05-03T21:28:18.723Z,1009.14
2023-05-03T21:33:18.692Z,1009.08
2023-05-03T21:38:18.592Z,1009.05
2023-05-03T21:43:18.534Z,1009.14
2023-05-03T21:48:18.473Z,1009.07
2023-05-03T21:53:18.391Z,1008.99
2023-05-03T21:58:18.329Z,1009.02
2023-05-03T22:03:18.358Z,1008.98
2023-05-03T22:08:18.253Z,1009.07
2023-05-03T22:13:18.139Z,1009.06
2023-05-03T22:18:18.070Z,1009.03
2023-05-03T22:23:18.015Z,1009.01
2023-05-03T22:28:17.930Z,1008.98
2023-05-03T22:33:17.902Z,1008.95
2023-05-03T22:38:17.803Z,1008.94
2023-05-03T22:43:17.730Z,1008.99
2023-05-03T22:48:17.676Z,1008.94
2023-05-03T22:53:17.599Z,1008.85
2023-05-03T22:58:17.540Z,1008.88
2023-05-03T23:03:17.548Z,1008.90
2023-05-03T23:08:17.412Z,1008.86
2023-05-03T23:13:17.444Z,1008.79
2023-05-03T23:18:17.280Z,1008.80
2023-05-03T23:23:17.216Z,1008.82
2023-05-03T23:28:17.159Z,1008.83
2023-05-03T23:33:17.098Z,1008.78
2023-05-03T23:38:17.041Z,1008.72
2023-05-03T23:43:16.954Z,1008.72
2023-05-03T23:48:16.881Z,1008.74
2023-05-03T23:53:16.812Z,1008.69
2023-05-03T23:58:16.762Z,1008.62
